createdAt,value
2019-03-31T00:00:48.276Z,100.0
2019-03-31T00:01:49.880Z,100.0
2019-03-31T00:02:51.667Z,100.0
2019-03-31T00:03:53.368Z,100.0
2019-03-31T00:04:55.221Z,100.0
2019-03-31T00:05:56.775Z,100.0
2019-03-31T00:06:58.447Z,100.0
2019-03-31T00:07:59.913Z,100.0
2019-03-31T00:09:01.999Z,100.0
2019-03-31T00:10:03.592Z,100.0
2019-03-31T00:11:05.597Z,100.0
2019-03-31T00:12:07.109Z,100.0
2019-03-31T00:13:08.984Z,100.0
2019-03-31T00:14:10.650Z,100.0
2019-03-31T00:15:12.300Z,100.0
2019-03-31T00:16:14.066Z,100.0
2019-03-31T00:17:16.420Z,100.0
2019-03-31T00:18:18.005Z,100.0
2019-03-31T00:19:19.910Z,100.0
2019-03-31T00:20:21.556Z,100.0
2019-03-31T00:21:23.398Z,100.0
2019-03-31T00:22:24.921Z,100.0
2019-03-31T00:23:26.593Z,100.0
2019-03-31T00:24:28.139Z,100.0
2019-03-31T00:25:29.657Z,100.0
2019-03-31T00:26:31.318Z,100.0
2019-03-31T00:27:32.874Z,100.0
2019-03-31T00:28:34.498Z,100.0
2019-03-31T00:29:36.296Z,100.0
2019-03-31T00:30:37.990Z,100.0
2019-03-31T00:31:39.515Z,100.0
2019-03-31T00:32:41.311Z,100.0
2019-03-31T00:33:42.938Z,100.0
2019-03-31T00:34:44.441Z,100.0
2019-03-31T00:35:46.279Z,100.0
2019-03-31T00:36:47.900Z,100.0
2019-03-31T00:37:49.428Z,100.0
2019-03-31T00:38:50.981Z,100.0
2019-03-31T00:39:52.592Z,100.0
2019-03-31T00:40:54.004Z,100.0
2019-03-31T00:41:55.745Z,100.0
2019-03-31T00:42:57.266Z,100.0
2019-03-31T00:43:59.078Z,100.0
2019-03-31T00:45:00.635Z,100.0
2019-03-31T00:46:02.211Z,100.0
2019-03-31T00:47:03.985Z,100.0
2019-03-31T00:48:05.494Z,100.0
2019-03-31T00:49:07.036Z,100.0
2019-03-31T00:50:08.743Z,100.0
2019-03-31T00:51:10.270Z,100.0
2019-03-31T00:52:11.782Z,100.0
2019-03-31T00:53:13.571Z,100.0
2019-03-31T00:54:15.145Z,100.0
2019-03-31T00:55:17.325Z,100.0
2019-03-31T00:56:19.077Z,100.0
2019-03-31T00:57:20.647Z,100.0
2019-03-31T00:58:22.256Z,100.0
2019-03-31T00:59:24.232Z,100.0
2019-03-31T01:00:26.102Z,100.0
2019-03-31T01:01:36.307Z,100.0
2019-03-31T01:02:29.312Z,100.0
2019-03-31T01:03:31.038Z,100.0
2019-03-31T01:04:33.024Z,100.0
2019-03-31T01:05:34.471Z,100.0
2019-03-31T01:06:36.056Z,100.0
2019-03-31T01:07:37.932Z,100.0
2019-03-31T01:08:39.472Z,100.0
2019-03-31T01:09:41.189Z,100.0
2019-03-31T01:10:42.911Z,100.0
2019-03-31T01:11:44.504Z,100.0
2019-03-31T01:12:46.199Z,100.0
2019-03-31T01:13:47.677Z,100.0
2019-03-31T01:14:49.473Z,100.0
2019-03-31T01:15:51.026Z,100.0
2019-03-31T01:16:52.944Z,100.0
2019-03-31T01:17:54.534Z,100.0
2019-03-31T01:18:56.391Z,100.0
2019-03-31T01:19:57.958Z,100.0
2019-03-31T01:20:59.873Z,100.0
2019-03-31T01:22:01.429Z,100.0
2019-03-31T01:23:03.110Z,100.0
2019-03-31T01:24:04.785Z,100.0
2019-03-31T01:25:06.587Z,100.0
2019-03-31T01:26:08.223Z,100.0
2019-03-31T01:27:09.718Z,100.0
2019-03-31T01:28:11.580Z,100.0
2019-03-31T01:29:13.109Z,100.0
2019-03-31T01:30:14.715Z,100.0
2019-03-31T01:31:16.406Z,100.0
2019-03-31T01:32:17.991Z,100.0
2019-03-31T01:33:19.721Z,100.0
2019-03-31T01:34:21.632Z,100.0
2019-03-31T01:35:23.294Z,100.0
2019-03-31T01:36:24.872Z,100.0
2019-03-31T01:37:26.855Z,100.0
2019-03-31T01:38:28.432Z,100.0
2019-03-31T01:39:30.538Z,100.0
2019-03-31T01:40:32.134Z,100.0
2019-03-31T01:41:34.130Z,100.0
2019-03-31T01:42:36.325Z,100.0
2019-03-31T01:43:37.968Z,100.0
2019-03-31T01:44:39.602Z,100.0
2019-03-31T01:45:41.324Z,100.0
2019-03-31T01:46:42.921Z,100.0
2019-03-31T01:47:44.602Z,100.0
2019-03-31T01:48:46.953Z,100.0
2019-03-31T01:49:48.510Z,100.0
2019-03-31T01:50:50.158Z,100.0
2019-03-31T01:51:51.664Z,100.0
2019-03-31T01:52:53.563Z,100.0
2019-03-31T01:53:55.164Z,100.0
2019-03-31T01:54:57.050Z,100.0
2019-03-31T01:55:58.903Z,100.0
2019-03-31T01:57:00.597Z,100.0
2019-03-31T01:58:02.441Z,100.0
2019-03-31T01:59:03.930Z,100.0
2019-03-31T02:00:05.702Z,100.0
2019-03-31T02:01:07.201Z,100.0
2019-03-31T02:02:08.859Z,100.0
2019-03-31T02:03:10.650Z,100.0
2019-03-31T02:04:12.186Z,100.0
2019-03-31T02:05:13.722Z,100.0
2019-03-31T02:06:15.660Z,100.0
2019-03-31T02:07:17.247Z,100.0
2019-03-31T02:08:18.888Z,100.0
2019-03-31T02:09:20.695Z,100.0
2019-03-31T02:10:22.268Z,100.0
2019-03-31T02:11:23.787Z,100.0
2019-03-31T02:12:25.864Z,100.0
2019-03-31T02:13:27.445Z,100.0
2019-03-31T02:14:29.336Z,100.0
2019-03-31T02:15:31.641Z,100.0
2019-03-31T02:16:33.328Z,100.0
2019-03-31T02:17:34.944Z,100.0
2019-03-31T02:18:36.725Z,100.0
2019-03-31T02:19:38.300Z,100.0
2019-03-31T02:20:40.249Z,100.0
2019-03-31T02:21:41.793Z,100.0
2019-03-31T02:22:43.670Z,100.0
2019-03-31T02:23:45.322Z,100.0
2019-03-31T02:24:47.107Z,100.0
2019-03-31T02:25:48.648Z,100.0
2019-03-31T02:26:51.492Z,100.0
2019-03-31T02:27:53.195Z,100.0
2019-03-31T02:28:55.013Z,100.0
2019-03-31T02:29:56.612Z,100.0
2019-03-31T02:30:58.512Z,100.0
2019-03-31T02:32:00.171Z,100.0
2019-03-31T02:33:02.022Z,100.0
2019-03-31T02:34:03.622Z,100.0
2019-03-31T02:35:05.355Z,100.0
2019-03-31T02:36:06.987Z,100.0
2019-03-31T02:37:08.675Z,100.0
2019-03-31T02:38:10.313Z,100.0
2019-03-31T02:39:11.933Z,100.0
2019-03-31T02:40:13.411Z,100.0
2019-03-31T02:41:14.921Z,100.0
2019-03-31T02:42:16.322Z,100.0
2019-03-31T02:43:18.054Z,100.0
2019-03-31T02:44:19.626Z,100.0
2019-03-31T02:45:21.438Z,100.0
2019-03-31T02:46:23.280Z,100.0
2019-03-31T02:47:24.763Z,100.0
2019-03-31T02:48:27.023Z,100.0
2019-03-31T02:49:28.926Z,100.0
2019-03-31T02:50:30.264Z,100.0
2019-03-31T02:51:32.267Z,100.0
2019-03-31T02:52:33.782Z,100.0
2019-03-31T02:53:35.367Z,100.0
2019-03-31T02:54:37.094Z,100.0
2019-03-31T02:55:38.616Z,100.0
2019-03-31T02:56:40.490Z,100.0
2019-03-31T02:57:42.280Z,100.0
2019-03-31T02:58:44.073Z,100.0
2019-03-31T02:59:45.866Z,100.0
2019-03-31T03:00:47.546Z,100.0
2019-03-31T03:01:49.402Z,100.0
2019-03-31T03:02:50.956Z,100.0
2019-03-31T03:03:52.710Z,100.0
2019-03-31T03:04:54.353Z,100.0
2019-03-31T03:05:56.180Z,100.0
2019-03-31T03:06:58.031Z,100.0
2019-03-31T03:07:59.697Z,100.0
2019-03-31T03:09:01.201Z,100.0
2019-03-31T03:10:03.025Z,100.0
2019-03-31T03:11:05.620Z,100.0
2019-03-31T03:12:07.103Z,100.0
2019-03-31T03:13:08.956Z,100.0
2019-03-31T03:14:10.881Z,100.0
2019-03-31T03:15:12.388Z,100.0
2019-03-31T03:16:14.121Z,100.0
2019-03-31T03:17:15.794Z,100.0
2019-03-31T03:18:17.347Z,100.0
2019-03-31T03:19:19.101Z,100.0
2019-03-31T03:20:20.624Z,100.0
2019-03-31T03:21:24.156Z,100.0
2019-03-31T03:22:24.055Z,100.0
2019-03-31T03:23:25.703Z,100.0
2019-03-31T03:24:27.459Z,100.0
2019-03-31T03:25:29.103Z,100.0
2019-03-31T03:26:30.604Z,100.0
2019-03-31T03:27:32.708Z,100.0
2019-03-31T03:28:34.325Z,100.0
2019-03-31T03:29:37.038Z,100.0
2019-03-31T03:30:39.656Z,100.0
2019-03-31T03:31:41.095Z,100.0
2019-03-31T03:33:11.026Z,100.0
2019-03-31T03:33:44.334Z,100.0
2019-03-31T03:34:46.234Z,100.0
2019-03-31T03:35:48.118Z,100.0
2019-03-31T03:36:49.826Z,100.0
2019-03-31T03:37:51.302Z,100.0
2019-03-31T03:38:53.234Z,100.0
2019-03-31T03:39:54.855Z,100.0
2019-03-31T03:40:56.734Z,100.0
2019-03-31T03:41:58.262Z,100.0
2019-03-31T03:43:00.043Z,100.0
2019-03-31T03:44:02.549Z,100.0
2019-03-31T03:45:03.462Z,100.0
2019-03-31T03:46:04.983Z,100.0
2019-03-31T03:47:06.614Z,100.0
2019-03-31T03:48:08.384Z,100.0
2019-03-31T03:49:10.136Z,100.0
2019-03-31T03:50:11.422Z,100.0
2019-03-31T03:51:13.082Z,100.0
2019-03-31T03:52:14.693Z,100.0
2019-03-31T03:53:16.350Z,100.0
2019-03-31T03:54:18.021Z,100.0
2019-03-31T03:55:19.749Z,100.0
2019-03-31T03:56:21.696Z,100.0
2019-03-31T03:57:23.359Z,100.0
2019-03-31T03:58:25.064Z,100.0
2019-03-31T03:59:26.836Z,100.0
2019-03-31T04:00:28.518Z,100.0
2019-03-31T04:01:30.076Z,100.0
2019-03-31T04:02:31.562Z,100.0
2019-03-31T04:03:33.354Z,100.0
2019-03-31T04:04:35.049Z,100.0
2019-03-31T04:05:36.635Z,100.0
2019-03-31T04:06:38.443Z,100.0
2019-03-31T04:07:40.200Z,100.0
2019-03-31T04:08:41.965Z,100.0
2019-03-31T04:09:43.535Z,100.0
2019-03-31T04:10:45.193Z,100.0
2019-03-31T04:11:47.203Z,100.0
2019-03-31T04:12:48.680Z,100.0
2019-03-31T04:13:50.340Z,100.0
2019-03-31T04:14:52.334Z,100.0
2019-03-31T04:15:53.921Z,100.0
2019-03-31T04:16:55.464Z,100.0
2019-03-31T04:17:57.532Z,100.0
2019-03-31T04:18:59.208Z,100.0
2019-03-31T04:20:00.673Z,100.0
2019-03-31T04:21:02.446Z,100.0
2019-03-31T04:22:04.019Z,100.0
2019-03-31T04:23:05.602Z,100.0
2019-03-31T04:24:07.452Z,100.0
2019-03-31T04:25:09.063Z,100.0
2019-03-31T04:26:10.559Z,100.0
2019-03-31T04:27:12.466Z,100.0
2019-03-31T04:28:13.987Z,100.0
2019-03-31T04:29:15.914Z,100.0
2019-03-31T04:30:17.789Z,100.0
2019-03-31T04:31:19.547Z,100.0
2019-03-31T04:32:21.092Z,100.0
2019-03-31T04:33:22.530Z,100.0
2019-03-31T04:34:24.206Z,100.0
2019-03-31T04:35:25.608Z,100.0
2019-03-31T04:36:27.434Z,100.0
2019-03-31T04:37:29.183Z,100.0
2019-03-31T04:38:30.684Z,100.0
2019-03-31T04:39:32.287Z,100.0
2019-03-31T04:40:34.153Z,100.0
2019-03-31T04:41:35.626Z,100.0
2019-03-31T04:42:37.215Z,100.0
2019-03-31T04:43:39.133Z,100.0
2019-03-31T04:44:40.854Z,100.0
2019-03-31T04:45:42.623Z,100.0
2019-03-31T04:46:44.306Z,100.0
2019-03-31T04:47:46.200Z,100.0
2019-03-31T04:48:47.827Z,100.0
2019-03-31T04:49:49.633Z,100.0
2019-03-31T04:50:52.255Z,100.0
2019-03-31T04:51:53.252Z,100.0
2019-03-31T04:52:55.061Z,100.0
2019-03-31T04:53:56.779Z,100.0
2019-03-31T04:54:58.370Z,100.0
2019-03-31T04:56:00.314Z,100.0
2019-03-31T04:57:04.381Z,100.0
2019-03-31T04:58:03.977Z,100.0
2019-03-31T04:59:05.667Z,100.0
2019-03-31T05:00:08.101Z,100.0
2019-03-31T05:01:09.767Z,100.0
2019-03-31T05:02:11.644Z,100.0
2019-03-31T05:03:13.188Z,100.0
2019-03-31T05:04:15.198Z,100.0
2019-03-31T05:05:16.771Z,100.0
2019-03-31T05:06:18.643Z,100.0
2019-03-31T05:07:20.292Z,100.0
2019-03-31T05:08:22.268Z,100.0
2019-03-31T05:09:23.810Z,100.0
2019-03-31T05:10:25.584Z,100.0
2019-03-31T05:11:27.244Z,100.0
2019-03-31T05:12:29.146Z,100.0
2019-03-31T05:13:30.825Z,100.0
2019-03-31T05:14:32.583Z,100.0
2019-03-31T05:15:34.210Z,100.0
2019-03-31T05:16:35.986Z,100.0
2019-03-31T05:17:37.745Z,100.0
2019-03-31T05:18:39.227Z,100.0
2019-03-31T05:19:40.920Z,100.0
2019-03-31T05:20:42.490Z,100.0
2019-03-31T05:21:43.983Z,100.0
2019-03-31T05:22:45.993Z,100.0
2019-03-31T05:23:47.552Z,100.0
2019-03-31T05:24:49.119Z,100.0
2019-03-31T05:25:50.761Z,100.0
2019-03-31T05:26:52.369Z,100.0
2019-03-31T05:27:54.031Z,100.0
2019-03-31T05:28:55.751Z,100.0
2019-03-31T05:29:57.362Z,100.0
2019-03-31T05:30:59.194Z,100.0
2019-03-31T05:32:00.877Z,100.0
2019-03-31T05:33:02.509Z,100.0
2019-03-31T05:34:18.102Z,100.0
2019-03-31T05:35:05.873Z,100.0
2019-03-31T05:36:07.588Z,100.0
2019-03-31T05:37:09.468Z,100.0
2019-03-31T05:38:11.067Z,100.0
2019-03-31T05:39:12.708Z,100.0
2019-03-31T05:40:14.596Z,100.0
2019-03-31T05:41:16.274Z,100.0
2019-03-31T05:42:17.792Z,100.0
2019-03-31T05:43:19.550Z,100.0
2019-03-31T05:44:21.276Z,100.0
2019-03-31T05:45:24.100Z,100.0
2019-03-31T05:46:25.787Z,100.0
2019-03-31T05:47:27.600Z,100.0
2019-03-31T05:48:29.239Z,100.0
2019-03-31T05:49:30.914Z,100.0
2019-03-31T05:50:32.588Z,100.0
2019-03-31T05:51:34.127Z,100.0
2019-03-31T05:52:35.771Z,100.0
2019-03-31T05:53:37.445Z,100.0
2019-03-31T05:54:38.978Z,100.0
2019-03-31T05:55:40.530Z,100.0
2019-03-31T05:56:42.344Z,100.0
2019-03-31T05:57:44.064Z,100.0
2019-03-31T05:58:45.742Z,100.0
2019-03-31T05:59:47.536Z,100.0
2019-03-31T06:00:49.202Z,100.0
2019-03-31T06:01:51.003Z,100.0
2019-03-31T06:02:52.444Z,100.0
2019-03-31T06:03:54.229Z,100.0
2019-03-31T06:04:55.953Z,100.0
2019-03-31T06:05:57.731Z,100.0
2019-03-31T06:06:59.257Z,100.0
2019-03-31T06:08:01.067Z,100.0
2019-03-31T06:09:02.764Z,100.0
2019-03-31T06:10:04.384Z,100.0
2019-03-31T06:11:06.254Z,100.0
2019-03-31T06:12:07.891Z,100.0
2019-03-31T06:13:09.467Z,100.0
2019-03-31T06:14:11.397Z,100.0
2019-03-31T06:15:14.003Z,100.0
2019-03-31T06:16:15.423Z,100.0
2019-03-31T06:17:17.199Z,100.0
2019-03-31T06:18:18.724Z,100.0
2019-03-31T06:19:22.355Z,100.0
2019-03-31T06:20:24.837Z,100.0
2019-03-31T06:21:29.073Z,100.0
2019-03-31T06:22:28.047Z,100.0
2019-03-31T06:23:29.595Z,100.0
2019-03-31T06:24:31.390Z,100.0
2019-03-31T06:25:33.052Z,100.0
2019-03-31T06:26:34.851Z,100.0
2019-03-31T06:27:36.331Z,100.0
2019-03-31T06:28:38.138Z,100.0
2019-03-31T06:29:39.747Z,100.0
2019-03-31T06:30:41.488Z,100.0
2019-03-31T06:31:44.071Z,100.0
2019-03-31T06:32:46.985Z,100.0
2019-03-31T06:33:48.461Z,100.0
2019-03-31T06:34:50.328Z,100.0
2019-03-31T06:35:51.839Z,100.0
2019-03-31T06:36:53.558Z,100.0
2019-03-31T06:37:55.028Z,100.0
2019-03-31T06:38:56.805Z,100.0
2019-03-31T06:39:58.489Z,100.0
2019-03-31T06:41:00.153Z,100.0
2019-03-31T06:42:01.584Z,100.0
2019-03-31T06:43:03.424Z,100.0
2019-03-31T06:44:04.962Z,100.0
2019-03-31T06:45:06.716Z,100.0
2019-03-31T06:46:08.304Z,100.0
2019-03-31T06:47:10.723Z,100.0
2019-03-31T06:48:12.373Z,100.0
2019-03-31T06:49:14.312Z,100.0
2019-03-31T06:50:15.857Z,100.0
2019-03-31T06:51:17.664Z,100.0
2019-03-31T06:52:19.201Z,100.0
2019-03-31T06:53:20.892Z,100.0
2019-03-31T06:54:22.455Z,100.0
2019-03-31T06:55:24.155Z,100.0
2019-03-31T06:56:26.272Z,100.0
2019-03-31T06:57:27.954Z,100.0
2019-03-31T06:58:29.546Z,100.0
2019-03-31T06:59:31.564Z,100.0
2019-03-31T07:00:33.064Z,100.0
2019-03-31T07:01:35.011Z,100.0
2019-03-31T07:02:36.643Z,100.0
2019-03-31T07:03:38.588Z,100.0
2019-03-31T07:04:40.358Z,100.0
2019-03-31T07:05:42.248Z,100.0
2019-03-31T07:06:43.817Z,100.0
2019-03-31T07:07:45.647Z,100.0
2019-03-31T07:08:47.285Z,100.0
2019-03-31T07:09:48.921Z,100.0
2019-03-31T07:10:50.826Z,100.0
2019-03-31T07:11:52.455Z,100.0
2019-03-31T07:12:54.067Z,100.0
2019-03-31T07:13:55.941Z,100.0
2019-03-31T07:14:57.537Z,100.0
2019-03-31T07:15:59.216Z,100.0
2019-03-31T07:17:01.173Z,100.0
2019-03-31T07:18:02.741Z,100.0
2019-03-31T07:19:04.630Z,100.0
2019-03-31T07:20:06.191Z,100.0
2019-03-31T07:21:07.889Z,100.0
2019-03-31T07:22:09.722Z,100.0
2019-03-31T07:23:11.428Z,100.0
2019-03-31T07:24:13.007Z,100.0
2019-03-31T07:25:14.920Z,100.0
2019-03-31T07:26:16.585Z,100.0
2019-03-31T07:27:18.206Z,100.0
2019-03-31T07:28:20.003Z,100.0
2019-03-31T07:29:21.759Z,100.0
2019-03-31T07:30:23.438Z,100.0
2019-03-31T07:31:25.429Z,100.0
2019-03-31T07:32:27.349Z,100.0
2019-03-31T07:33:29.107Z,100.0
2019-03-31T07:34:30.951Z,100.0
2019-03-31T07:35:32.587Z,100.0
2019-03-31T07:36:34.221Z,100.0
2019-03-31T07:37:46.537Z,100.0
2019-03-31T07:38:39.226Z,100.0
2019-03-31T07:39:39.587Z,100.0
2019-03-31T07:40:41.707Z,100.0
2019-03-31T07:41:43.461Z,100.0
2019-03-31T07:42:44.653Z,100.0
2019-03-31T07:43:46.576Z,100.0
2019-03-31T07:44:48.211Z,100.0
2019-03-31T07:45:49.806Z,100.0
2019-03-31T07:46:51.666Z,100.0
2019-03-31T07:47:53.289Z,100.0
2019-03-31T07:48:55.131Z,100.0
2019-03-31T07:49:56.799Z,100.0
2019-03-31T07:50:58.471Z,100.0
2019-03-31T07:52:00.406Z,100.0
2019-03-31T07:53:01.921Z,100.0
2019-03-31T07:54:03.616Z,100.0
2019-03-31T07:55:05.482Z,100.0
2019-03-31T07:56:07.175Z,100.0
2019-03-31T07:57:08.980Z,100.0
2019-03-31T07:58:10.651Z,100.0
2019-03-31T07:59:12.438Z,100.0
2019-03-31T08:00:15.583Z,100.0
2019-03-31T08:01:18.448Z,100.0
2019-03-31T08:02:21.943Z,100.0
2019-03-31T08:03:23.858Z,100.0
2019-03-31T08:04:25.382Z,100.0
2019-03-31T08:05:32.847Z,100.0
2019-03-31T08:06:28.619Z,100.0
2019-03-31T08:07:30.156Z,100.0
2019-03-31T08:08:31.929Z,100.0
2019-03-31T08:09:33.474Z,100.0
2019-03-31T08:10:35.064Z,100.0
2019-03-31T08:11:36.801Z,100.0
2019-03-31T08:12:38.268Z,100.0
2019-03-31T08:13:39.784Z,100.0
2019-03-31T08:14:41.573Z,100.0
2019-03-31T08:15:43.100Z,100.0
2019-03-31T08:16:44.620Z,100.0
2019-03-31T08:17:46.503Z,100.0
2019-03-31T08:18:48.080Z,100.0
2019-03-31T08:19:49.619Z,100.0
2019-03-31T08:20:51.215Z,100.0
2019-03-31T08:21:52.797Z,100.0
2019-03-31T08:22:56.980Z,100.0
2019-03-31T08:23:56.025Z,100.0
2019-03-31T08:24:57.537Z,100.0
2019-03-31T08:25:59.091Z,100.0
2019-03-31T08:27:00.717Z,100.0
2019-03-31T08:28:02.107Z,100.0
2019-03-31T08:29:03.808Z,100.0
2019-03-31T08:30:05.374Z,100.0
2019-03-31T08:31:06.838Z,100.0
2019-03-31T08:32:08.647Z,100.0
2019-03-31T08:33:10.253Z,100.0
2019-03-31T08:34:11.986Z,100.0
2019-03-31T08:35:13.572Z,100.0
2019-03-31T08:36:15.160Z,100.0
2019-03-31T08:37:16.990Z,100.0
2019-03-31T08:38:18.609Z,100.0
2019-03-31T08:39:20.253Z,100.0
2019-03-31T08:40:22.119Z,100.0
2019-03-31T08:41:23.763Z,100.0
2019-03-31T08:42:25.453Z,100.0
2019-03-31T08:43:27.254Z,100.0
2019-03-31T08:44:28.907Z,100.0
2019-03-31T08:45:30.590Z,100.0
2019-03-31T08:46:32.148Z,100.0
2019-03-31T08:47:33.549Z,100.0
2019-03-31T08:48:35.275Z,100.0
2019-03-31T08:49:36.719Z,100.0
2019-03-31T08:50:38.344Z,100.0
2019-03-31T08:51:39.781Z,99.6
2019-03-31T08:52:41.475Z,100.0
2019-03-31T08:53:42.974Z,97.4
2019-03-31T08:54:46.238Z,95.6
2019-03-31T08:55:47.957Z,95.1
2019-03-31T08:56:51.962Z,95.7
2019-03-31T08:57:54.332Z,93.7
2019-03-31T08:59:35.589Z,90.7
2019-03-31T09:01:17.985Z,90.1
2019-03-31T09:02:21.326Z,88.0
2019-03-31T09:03:25.460Z,84.3
2019-03-31T09:04:27.133Z,82.9
2019-03-31T09:06:11.742Z,81.3
2019-03-31T09:07:13.129Z,81.2
2019-03-31T09:08:14.530Z,81.2
2019-03-31T09:09:15.932Z,79.6
2019-03-31T09:10:17.341Z,76.8
2019-03-31T09:11:18.753Z,73.9
2019-03-31T09:12:20.260Z,71.4
2019-03-31T09:13:21.667Z,72.0
2019-03-31T09:14:23.347Z,73.2
2019-03-31T09:15:24.754Z,73.8
2019-03-31T09:16:26.433Z,73.6
2019-03-31T09:17:27.838Z,74.1
2019-03-31T09:18:29.514Z,73.3
2019-03-31T09:19:30.920Z,73.2
2019-03-31T09:20:32.605Z,72.1
2019-03-31T09:21:34.009Z,71.6
2019-03-31T09:22:35.406Z,71.1
2019-03-31T09:23:36.925Z,69.8
2019-03-31T09:24:38.331Z,70.1
2019-03-31T09:25:39.738Z,70.8
2019-03-31T09:26:41.252Z,70.7
2019-03-31T09:27:42.655Z,70.6
2019-03-31T09:28:44.054Z,70.5
2019-03-31T09:29:45.575Z,70.7
2019-03-31T09:30:46.980Z,71.2
2019-03-31T09:31:48.384Z,71.9
2019-03-31T09:32:49.890Z,72.5
2019-03-31T09:33:51.358Z,73.1
2019-03-31T09:34:52.766Z,73.4
2019-03-31T09:35:54.410Z,74.8
2019-03-31T09:36:55.819Z,75.3
2019-03-31T09:37:57.219Z,74.8
2019-03-31T09:38:58.735Z,75.9
2019-03-31T09:40:00.377Z,76.0
2019-03-31T09:41:01.508Z,76.3
2019-03-31T09:42:03.055Z,75.8
2019-03-31T09:43:04.589Z,77.2
2019-03-31T09:44:05.823Z,77.1
2019-03-31T09:45:07.378Z,76.4
2019-03-31T09:46:08.780Z,76.3
2019-03-31T09:47:10.187Z,75.8
2019-03-31T09:48:11.698Z,73.6
2019-03-31T09:49:13.104Z,73.1
2019-03-31T09:50:17.312Z,74.6
2019-03-31T09:51:16.148Z,74.3
2019-03-31T09:52:17.559Z,74.2
2019-03-31T09:53:19.104Z,74.4
2019-03-31T09:54:20.506Z,74.5
2019-03-31T09:55:23.208Z,73.2
2019-03-31T09:56:23.426Z,74.0
2019-03-31T09:57:24.828Z,76.9
2019-03-31T09:58:26.513Z,76.5
2019-03-31T09:59:27.942Z,75.5
2019-03-31T10:00:29.643Z,73.8
2019-03-31T10:01:31.006Z,73.3
2019-03-31T10:02:32.368Z,74.1
2019-03-31T10:03:33.927Z,74.5
2019-03-31T10:04:35.322Z,74.9
2019-03-31T10:05:36.726Z,75.5
2019-03-31T10:06:38.240Z,76.7
2019-03-31T10:07:39.641Z,76.7
2019-03-31T10:08:41.325Z,77.0
2019-03-31T10:09:42.728Z,77.6
2019-03-31T10:10:44.415Z,77.6
2019-03-31T10:11:45.813Z,78.2
2019-03-31T10:12:47.220Z,80.3
2019-03-31T10:13:48.827Z,80.6
2019-03-31T10:14:50.217Z,80.7
2019-03-31T10:15:51.642Z,79.8
2019-03-31T10:16:53.259Z,78.6
2019-03-31T10:17:54.664Z,78.7
2019-03-31T10:18:56.344Z,79.9
2019-03-31T10:19:57.749Z,80.8
2019-03-31T10:20:59.499Z,79.8
2019-03-31T10:22:00.838Z,80.8
2019-03-31T10:23:02.245Z,82.4
2019-03-31T10:24:03.755Z,81.9
2019-03-31T10:25:05.161Z,79.9
2019-03-31T10:26:06.560Z,80.0
2019-03-31T10:27:08.087Z,80.9
2019-03-31T10:28:09.473Z,82.0
2019-03-31T10:29:11.158Z,81.8
2019-03-31T10:30:12.579Z,79.7
2019-03-31T10:31:14.245Z,79.1
2019-03-31T10:32:15.685Z,78.4
2019-03-31T10:33:17.057Z,76.2
2019-03-31T10:34:18.566Z,76.3
2019-03-31T10:35:20.064Z,74.0
2019-03-31T10:36:21.445Z,74.2
2019-03-31T10:37:23.128Z,74.1
2019-03-31T10:38:24.532Z,73.2
2019-03-31T10:39:25.939Z,73.7
2019-03-31T10:40:27.637Z,71.9
2019-03-31T10:41:31.003Z,71.5
2019-03-31T10:42:30.456Z,71.7
2019-03-31T10:43:32.165Z,71.7
2019-03-31T10:44:33.699Z,71.2
2019-03-31T10:45:35.106Z,70.4
2019-03-31T10:46:36.691Z,70.6
2019-03-31T10:47:38.217Z,69.3
2019-03-31T10:48:39.644Z,70.1
2019-03-31T10:49:41.400Z,68.2
2019-03-31T10:50:43.048Z,68.1
2019-03-31T10:51:44.611Z,69.3
2019-03-31T10:52:46.335Z,69.9
2019-03-31T10:53:47.890Z,69.7
2019-03-31T10:54:49.562Z,70.3
2019-03-31T10:55:51.388Z,70.7
2019-03-31T10:56:52.953Z,71.3
2019-03-31T10:57:54.565Z,71.2
2019-03-31T10:58:56.389Z,73.0
2019-03-31T10:59:58.018Z,73.9
2019-03-31T11:00:59.734Z,74.4
2019-03-31T11:02:01.291Z,74.1
2019-03-31T11:03:03.060Z,74.8
2019-03-31T11:04:04.725Z,75.5
2019-03-31T11:05:06.561Z,76.9
2019-03-31T11:06:08.146Z,76.0
2019-03-31T11:07:09.995Z,75.9
2019-03-31T11:08:11.608Z,75.7
2019-03-31T11:09:13.233Z,74.1
2019-03-31T11:10:15.049Z,72.6
2019-03-31T11:11:16.607Z,71.8
2019-03-31T11:12:18.357Z,71.6
2019-03-31T11:13:20.104Z,71.3
2019-03-31T11:14:21.598Z,71.1
2019-03-31T11:15:23.935Z,71.5
2019-03-31T11:16:26.702Z,70.7
2019-03-31T11:17:29.041Z,70.4
2019-03-31T11:18:31.625Z,69.7
2019-03-31T11:19:47.196Z,69.9
2019-03-31T11:20:54.962Z,69.7
2019-03-31T11:21:57.793Z,69.1
2019-03-31T11:22:59.956Z,68.7
2019-03-31T11:24:01.483Z,69.7
2019-03-31T11:25:56.428Z,68.9
2019-03-31T11:26:59.215Z,69.1
2019-03-31T11:28:07.680Z,69.3
2019-03-31T11:29:10.808Z,70.4
2019-03-31T11:30:12.139Z,70.7
2019-03-31T11:31:13.910Z,71.2
2019-03-31T11:32:15.545Z,72.5
2019-03-31T11:33:17.488Z,71.9
2019-03-31T11:34:19.788Z,72.9
2019-03-31T11:35:20.816Z,74.0
2019-03-31T11:36:22.507Z,74.5
2019-03-31T11:37:24.888Z,74.5
2019-03-31T11:38:27.094Z,74.8
2019-03-31T11:39:28.567Z,76.2
2019-03-31T11:40:30.217Z,77.3
2019-03-31T11:41:31.855Z,75.8
2019-03-31T11:42:33.514Z,74.6
2019-03-31T11:43:35.250Z,75.6
2019-03-31T11:44:36.847Z,74.8
2019-03-31T11:45:38.750Z,74.3
2019-03-31T11:46:40.337Z,73.5
2019-03-31T11:47:42.377Z,73.9
2019-03-31T11:48:43.986Z,72.7
2019-03-31T11:49:45.748Z,72.7
2019-03-31T11:50:47.440Z,74.1
2019-03-31T11:51:49.283Z,73.8
2019-03-31T11:52:50.885Z,72.9
2019-03-31T11:53:52.693Z,73.3
2019-03-31T11:54:54.262Z,73.7
2019-03-31T11:55:55.929Z,73.9
2019-03-31T11:56:57.457Z,75.0
2019-03-31T11:57:59.313Z,75.5
2019-03-31T11:59:00.953Z,75.4
2019-03-31T12:00:02.604Z,75.0
2019-03-31T12:01:04.446Z,74.1
2019-03-31T12:02:06.154Z,73.7
2019-03-31T12:03:07.746Z,73.2
2019-03-31T12:04:09.648Z,73.5
2019-03-31T12:05:11.434Z,74.1
2019-03-31T12:06:13.072Z,73.2
2019-03-31T12:07:27.341Z,74.1
2019-03-31T12:08:16.570Z,73.3
2019-03-31T12:09:18.208Z,72.5
2019-03-31T12:10:20.293Z,71.7
2019-03-31T12:11:21.752Z,70.6
2019-03-31T12:12:23.572Z,69.9
2019-03-31T12:13:25.206Z,70.2
2019-03-31T12:14:26.896Z,70.4
2019-03-31T12:15:28.718Z,71.0
2019-03-31T12:16:30.398Z,70.3
2019-03-31T12:17:32.081Z,69.8
2019-03-31T12:18:33.928Z,68.1
2019-03-31T12:19:35.506Z,67.2
2019-03-31T12:20:37.256Z,67.3
2019-03-31T12:21:38.778Z,66.6
2019-03-31T12:22:40.762Z,65.5
2019-03-31T12:23:42.308Z,64.7
2019-03-31T12:24:44.103Z,65.7
2019-03-31T12:25:45.803Z,66.5
2019-03-31T12:26:47.595Z,65.6
2019-03-31T12:27:49.275Z,65.8
2019-03-31T12:28:50.978Z,66.4
2019-03-31T12:29:52.719Z,65.5
2019-03-31T12:30:54.430Z,64.2
2019-03-31T12:31:56.142Z,63.7
2019-03-31T12:32:57.928Z,63.2
2019-03-31T12:33:59.521Z,60.8
2019-03-31T12:35:01.188Z,60.0
2019-03-31T12:36:03.082Z,60.4
2019-03-31T12:37:04.732Z,60.9
2019-03-31T12:38:06.439Z,60.2
2019-03-31T12:39:08.204Z,59.2
2019-03-31T12:40:09.810Z,60.4
2019-03-31T12:41:11.705Z,60.4
2019-03-31T12:42:13.313Z,61.4
2019-03-31T12:43:15.074Z,61.7
2019-03-31T12:44:16.614Z,62.7
2019-03-31T12:45:18.181Z,63.3
2019-03-31T12:46:19.825Z,64.3
2019-03-31T12:47:21.390Z,65.3
2019-03-31T12:48:22.947Z,66.2
2019-03-31T12:49:24.724Z,66.6
2019-03-31T12:50:26.274Z,66.4
2019-03-31T12:51:27.792Z,67.5
2019-03-31T12:52:29.491Z,68.0
2019-03-31T12:53:30.897Z,67.1
2019-03-31T12:54:32.356Z,65.3
2019-03-31T12:55:34.150Z,66.3
2019-03-31T12:56:35.643Z,67.7
2019-03-31T12:57:37.292Z,66.3
2019-03-31T12:58:39.155Z,65.6
2019-03-31T12:59:40.816Z,65.7
2019-03-31T13:00:42.573Z,65.5
2019-03-31T13:01:44.235Z,65.6
2019-03-31T13:02:46.051Z,64.5
2019-03-31T13:03:47.712Z,65.7
2019-03-31T13:04:49.358Z,65.3
2019-03-31T13:05:52.076Z,65.7
2019-03-31T13:06:53.525Z,65.3
2019-03-31T13:07:56.469Z,66.1
2019-03-31T13:08:57.010Z,66.4
2019-03-31T13:09:58.529Z,65.5
2019-03-31T13:11:00.169Z,67.2
2019-03-31T13:12:01.848Z,66.4
2019-03-31T13:13:03.415Z,67.2
2019-03-31T13:14:05.014Z,66.0
2019-03-31T13:15:06.726Z,66.5
2019-03-31T13:16:08.371Z,66.2
2019-03-31T13:17:10.113Z,67.8
2019-03-31T13:18:11.671Z,67.4
2019-03-31T13:19:13.321Z,67.5
2019-03-31T13:20:14.963Z,68.0
2019-03-31T13:21:16.817Z,66.4
2019-03-31T13:22:18.471Z,66.6
2019-03-31T13:23:20.081Z,66.4
2019-03-31T13:24:21.786Z,66.6
2019-03-31T13:25:23.677Z,65.1
2019-03-31T13:26:25.166Z,65.4
2019-03-31T13:27:26.967Z,65.4